Aérodrome :
LOGIN :

S'inscrire | Disclaimer

   EN    FR    IT 

 










Légende :    VFR   VFR Marginal   IFR   IFR Intensif   IFR Très Intensif
Visi : 
Plafond : 
>= 8 km
>= 3000ft
5 à 8 km
1000 à 3000 ft
1500m à 5 km
500 à 1000 ft
800 à 1500m
200 à 500 ft
< 800m
< 200 ft
Symboles :   Orages  Brouillard  Fortes neiges  Fortes précipitations  Vent > 20 kt
SIGMETs :   Divers  Orages  Givrage  Turbulence  Onde Orograph.  Cendres Volcan.






- Altitude de l'aérodrome : 386 ft
- Code IATA : QOE


ETNN - Nörvenich Airforce Base

DERNIER METAR :
  • 282120Z 22001KT 6000 MIFG SCT020 SCT120 06/05 Q1013 WHT

METARs EXPIRÉS :
  • 282045Z 00000KT 1500 R24/3500D MIFG BR FEW025 SCT120 BKN280 05/04 Q1013 AMB FCST CNL
  • 282020Z VRB02KT 9999 MIFG SCT025 BKN120 06/06 Q1013 BLU BLU TEMPO AMB
  • 281959Z VRB02KT 9999 MIFG SCT025 SCT070 BKN120 06/06 Q1013 BLU BLU TEMPO AMB
  • 281920Z 21004KT 9999 FEW025 BKN070 07/06 Q1012 BLU BLU TEMPO WHT

TAF AMD TAF ETNN
Valide du 28 à 19h jusqu'au 29 à 03h UTC


281959Z 2819/2903 25003KT 8000 NSW SCT020 BKN060
TEMPO 2820/2903 VRB01KT 1500 MIFG BKN015
BECMG 2821/2823 27003KT 5000 BR BKN010 BY ETGL



MET'MAP, la Météo Aéronautique d'un coup d'oeil ! - Copyright ORBIFLY Décembre 2007 - Disclaimer

ORBIFLY MET'MAP TEAM :

Programmation & Développement : Alexandra Zaïnal
Sur une idée originale de : Baudouin d'Aumeries
Soutien technique & logistique : Manuel Goepfert
Assistance : Marc-Olivier Méhu




SOURCES & CREDITS :

   NOAA